Campanya meteocatpedra

Dades de l'estació automàtica Lleida - la Bordeta

?
?
Resum diari 20:30 TU
Dades diàries de l'estació meteorològica
Temperatura mitjana 25.0 °C
Temperatura màxima 32.9 °C 15:56 TU
Temperatura mínima 17.2 °C 4:39 TU
Humitat relativa mitjana 58%
Precipitació acumulada 0.0 mm
Ratxa màxima del vent (2 m) 16.9 km/h - 320º 12:36 TU

El tram horari està expressat en Temps Universal (TU). Cal sumar una hora en horari d'hivern i dues en horari d'estiu per passar a l'hora oficial.

Lleida - la Bordeta

Metadades estació meteorol´gica
Municipi Lleida
Comarca Segrià
Altitud 165 m
Data alta 24.07.2013
Estat actual Operativa
Dades de període
Període
TU
TM
°C
TX
°C
TN
°C
HRM
%
PPT
mm
VVM (2 m)
km/h
DVM (2 m)
graus
VVX (2 m)
km/h
00:00 - 00:30 20.6 20.8 20.1 73 0.0 0.4 29 2.5
00:30 - 01:00 20.0 20.4 19.4 78 0.0 0.0 124 2.2
01:00 - 01:30 20.1 20.4 19.4 79 0.0 0.4 61 3.2
01:30 - 02:00 19.4 20.0 18.9 82 0.0 0.0 185 1.8
02:00 - 02:30 18.7 19.3 18.3 85 0.0 0.4 177 4.3
02:30 - 03:00 19.4 19.5 19.3 79 0.0 0.7 185 4.3
03:00 - 03:30 18.7 19.4 18.0 81 0.0 0.0 218 1.4
03:30 - 04:00 17.6 18.0 17.4 86 0.0 0.0 217 1.8
04:00 - 04:30 17.5 17.7 17.2 87 0.0 1.1 230 4.3
04:30 - 05:00 17.2 17.4 17.2 89 0.0 0.0 207 1.4
05:00 - 05:30 17.8 18.6 17.5 86 0.0 0.0 257 1.4
05:30 - 06:00 19.3 20.0 18.7 77 0.0 0.7 296 4.0
06:00 - 06:30 20.4 20.8 20.0 72 0.0 2.2 260 5.8
06:30 - 07:00 21.3 21.8 20.8 67 0.0 2.9 250 7.2
07:00 - 07:30 22.2 22.8 21.7 63 0.0 2.9 237 9.4
07:30 - 08:00 23.1 24.1 22.3 59 0.0 1.8 194 8.3
08:00 - 08:30 23.6 24.4 22.8 58 0.0 2.5 264 9.7
08:30 - 09:00 24.1 25.0 23.2 56 0.0 2.5 254 8.6
09:00 - 09:30 24.7 25.3 23.9 55 0.0 3.6 264 10.1
09:30 - 10:00 25.1 25.7 24.6 54 0.0 4.0 268 14.8
10:00 - 10:30 25.7 26.7 24.9 51 0.0 4.3 290 10.8
10:30 - 11:00 26.6 27.0 26.1 47 0.0 4.3 273 11.5
11:00 - 11:30 27.3 27.9 26.7 44 0.0 4.0 283 13.7
11:30 - 12:00 28.5 29.1 27.7 40 0.0 4.7 257 13.3
12:00 - 12:30 29.1 29.8 28.6 37 0.0 5.4 269 16.2
12:30 - 13:00 29.8 30.2 29.4 36 0.0 5.8 268 16.9
13:00 - 13:30 30.4 31.3 29.8 35 0.0 6.1 267 16.2
13:30 - 14:00 31.1 31.7 30.4 34 0.0 5.4 263 14.8
14:00 - 14:30 31.5 32.2 30.9 32 0.0 5.8 261 16.2
14:30 - 15:00 32.0 32.6 31.5 30 0.0 4.7 264 16.6
15:00 - 15:30 32.4 32.8 32.2 29 0.0 5.0 278 14.4
15:30 - 16:00 32.6 32.9 32.1 31 0.0 5.0 253 13.0
16:00 - 16:30 32.2 32.6 31.9 42 0.0 4.7 208 13.3
16:30 - 17:00 31.6 32.2 30.9 44 0.0 4.7 200 13.7
17:00 - 17:30 30.3 31.0 29.7 47 0.0 5.4 204 16.9
17:30 - 18:00 29.2 29.6 28.6 50 0.0 5.8 202 14.4
18:00 - 18:30 28.6 29.0 28.1 52 0.0 4.0 198 13.0
18:30 - 19:00 27.9 28.2 27.3 54 0.0 2.5 172 9.0
19:00 - 19:30 26.7 27.3 26.0 57 0.0 2.2 186 7.6
19:30 - 20:00 25.4 25.9 25.0 61 0.0 2.2 210 6.8
20:00 - 20:30 24.5 25.0 24.1 63 0.0 1.1 217 8.3
20:30 - 21:00 24.0 24.1 23.5 66 0.0 1.4 84 6.8

Les dades en taronja només han passat un control de qualitat automàtic. Resta pendent la seva validació definitiva.